Time;durP1;ratioP1;P1;durP2;ratioP2;P2;SDS_P1;SDS_P2;PMS_P1;PMS_P2;Temp;Humidity;BMP_temperature;BMP_pressure;BME280_temperature;BME280_humidity;BME280_pressure;Samples;Min_cycle;Max_cycle;Signal;HPM_P1;HPM_P2
2022/05/12 00:00:01;;;;;;;71.50;50.85;;;20.40;58.40;;;;;;4922561;28;89848;-38
2022/05/12 00:02:27;;;;;;;72.15;51.00;;;20.40;58.60;;;;;;4909601;28;92068;-40
2022/05/12 00:04:54;;;;;;;70.53;50.88;;;20.40;58.70;;;;;;4918313;28;91586;-38
2022/05/12 00:07:20;;;;;;;71.85;50.65;;;20.40;58.60;;;;;;4921548;28;90960;-43
2022/05/12 00:09:46;;;;;;;71.38;50.92;;;20.40;58.70;;;;;;4916265;28;90544;-37
2022/05/12 00:12:11;;;;;;;70.53;50.90;;;20.40;58.80;;;;;;4923194;28;91950;-37
2022/05/12 00:14:37;;;;;;;70.03;50.70;;;20.40;58.70;;;;;;4921125;28;90619;-38
2022/05/12 00:17:03;;;;;;;71.38;51.00;;;20.40;58.70;;;;;;4914907;28;91660;-38
2022/05/12 00:19:29;;;;;;;74.50;51.00;;;20.40;58.70;;;;;;4922415;28;90209;-38
2022/05/12 00:21:56;;;;;;;70.18;50.83;;;20.40;58.90;;;;;;4925964;28;89276;-37
2022/05/12 00:24:22;;;;;;;70.95;50.97;;;20.40;58.80;;;;;;4921690;28;91795;-37
2022/05/12 00:26:47;;;;;;;71.85;51.15;;;20.40;58.70;;;;;;4919705;28;91336;-38
2022/05/12 00:29:13;;;;;;;71.25;50.85;;;20.40;58.80;;;;;;4923924;28;90874;-37
2022/05/12 00:31:43;;;;;;;69.80;50.78;;;20.30;58.80;;;;;;4915051;28;90324;-37
2022/05/12 00:34:10;;;;;;;71.53;50.90;;;20.30;58.90;;;;;;4913411;28;91469;-37
2022/05/12 00:36:36;;;;;;;70.88;50.85;;;20.30;58.90;;;;;;4914725;28;92111;-37
2022/05/12 00:39:03;;;;;;;74.00;51.45;;;20.30;58.80;;;;;;4917327;28;90612;-37
2022/05/12 00:41:29;;;;;;;72.30;50.92;;;20.20;58.90;;;;;;4928838;28;89962;-38
2022/05/12 00:43:59;;;;;;;70.45;50.75;;;20.20;59.10;;;;;;4921150;28;90192;-37
2022/05/12 00:46:27;;;;;;;69.80;50.67;;;20.20;58.90;;;;;;4926266;28;89139;-37
2022/05/12 00:49:02;;;;;;;71.43;50.80;;;20.20;59.10;;;;;;4923858;28;92618;-39
2022/05/12 00:51:39;;;;;;;70.60;50.92;;;20.20;59.20;;;;;;4923786;28;90339;-37
2022/05/12 00:54:12;;;;;;;70.43;50.85;;;20.20;59.20;;;;;;4921534;28;93939;-38
2022/05/12 00:56:38;;;;;;;70.25;50.70;;;20.20;59.10;;;;;;4921728;28;90753;-39
2022/05/12 00:59:09;;;;;;;70.50;50.85;;;20.20;59.10;;;;;;4920709;28;95087;-37
2022/05/12 01:01:37;;;;;;;69.78;50.70;;;20.20;59.30;;;;;;4907369;28;90800;-37
2022/05/12 01:04:03;;;;;;;70.45;51.00;;;20.20;59.10;;;;;;4919214;28;89992;-37
2022/05/12 01:06:28;;;;;;;71.15;50.92;;;20.10;59.20;;;;;;4923649;28;90044;-38
2022/05/12 01:08:54;;;;;;;70.95;50.95;;;20.10;59.20;;;;;;4925229;28;90319;-39
2022/05/12 01:11:21;;;;;;;71.35;50.92;;;20.10;59.20;;;;;;4920394;28;92539;-37
2022/05/12 01:14:00;;;;;;;71.85;50.75;;;20.10;59.20;;;;;;4925450;28;90247;-37
2022/05/12 01:16:39;;;;;;;69.75;50.72;;;20.00;59.40;;;;;;4921606;28;90148;-40
2022/05/12 01:19:06;;;;;;;70.65;50.55;;;20.00;59.50;;;;;;4925853;28;91657;-38
2022/05/12 01:21:33;;;;;;;69.45;50.65;;;20.00;59.40;;;;;;4920467;28;91251;-37
2022/05/12 01:24:00;;;;;;;71.53;51.25;;;20.00;59.40;;;;;;4929730;28;89908;-39
2022/05/12 01:26:26;;;;;;;69.10;50.63;;;20.00;59.50;;;;;;4925643;28;90912;-38
2022/05/12 01:28:52;;;;;;;70.45;50.83;;;20.00;59.50;;;;;;4924753;28;90418;-40
2022/05/12 01:31:19;;;;;;;71.13;50.78;;;19.90;59.50;;;;;;4918333;28;96012;-37
2022/05/12 01:33:44;;;;;;;72.20;50.95;;;19.90;59.60;;;;;;4924665;28;90989;-38
2022/05/12 01:36:10;;;;;;;71.18;50.70;;;19.90;59.80;;;;;;4926507;28;90591;-39
2022/05/12 01:38:36;;;;;;;70.13;50.67;;;19.90;59.80;;;;;;4933837;28;90140;-39
2022/05/12 01:41:01;;;;;;;69.53;50.60;;;19.90;59.80;;;;;;4921707;28;90850;-42
2022/05/12 01:43:27;;;;;;;69.25;50.50;;;19.90;59.90;;;;;;4931360;28;91633;-37
2022/05/12 01:45:53;;;;;;;71.00;50.65;;;19.90;59.70;;;;;;4921055;28;90895;-39
2022/05/12 01:48:19;;;;;;;70.20;50.65;;;19.90;59.90;;;;;;4914611;28;89873;-38
2022/05/12 01:50:47;;;;;;;70.65;50.88;;;19.90;59.90;;;;;;4925737;28;89815;-38
2022/05/12 01:53:15;;;;;;;69.78;50.53;;;19.90;59.80;;;;;;4928078;28;90414;-37
2022/05/12 01:55:41;;;;;;;69.38;50.67;;;19.90;59.80;;;;;;4923224;28;92394;-37
2022/05/12 01:58:07;;;;;;;70.20;50.65;;;19.90;59.80;;;;;;4932973;28;90367;-39
2022/05/12 02:00:33;;;;;;;69.65;50.80;;;19.80;59.80;;;;;;4920736;28;95075;-42
2022/05/12 02:03:03;;;;;;;72.70;50.85;;;19.80;60.00;;;;;;4913964;28;93002;-39
2022/05/12 02:05:30;;;;;;;70.15;50.72;;;19.80;59.90;;;;;;4930741;28;89966;-38
2022/05/12 02:07:56;;;;;;;70.05;50.45;;;19.80;59.90;;;;;;4921999;28;95203;-37
2022/05/12 02:10:28;;;;;;;71.30;50.95;;;19.80;59.90;;;;;;4926453;28;90168;-40
2022/05/12 02:12:53;;;;;;;70.80;50.85;;;19.70;60.00;;;;;;4933516;28;89653;-41
2022/05/12 02:15:20;;;;;;;71.53;50.55;;;19.70;59.90;;;;;;4937441;28;91963;-38
2022/05/12 02:17:46;;;;;;;70.28;50.65;;;19.70;60.00;;;;;;4923248;28;92298;-38
2022/05/12 02:20:13;;;;;;;69.53;50.55;;;19.70;60.10;;;;;;4927106;28;92251;-38
2022/05/12 02:22:40;;;;;;;69.57;50.55;;;19.70;60.10;;;;;;4922137;28;92188;-37
2022/05/12 02:25:07;;;;;;;69.60;50.72;;;19.60;60.20;;;;;;4926751;28;90477;-38
2022/05/12 02:27:33;;;;;;;69.78;50.55;;;19.70;60.10;;;;;;4921506;28;90221;-40
2022/05/12 02:29:59;;;;;;;71.05;50.72;;;19.70;60.40;;;;;;4927852;28;90432;-38
2022/05/12 02:32:27;;;;;;;71.22;50.53;;;19.70;60.00;;;;;;4915807;28;90845;-38
2022/05/12 02:34:53;;;;;;;70.43;50.80;;;19.70;60.30;;;;;;4920631;28;94619;-38
2022/05/12 02:37:19;;;;;;;70.90;50.55;;;19.60;60.50;;;;;;4918196;28;91290;-38
2022/05/12 02:39:45;;;;;;;70.45;50.85;;;19.60;60.20;;;;;;4929949;28;89881;-38
2022/05/12 02:42:11;;;;;;;71.93;50.42;;;19.60;60.30;;;;;;4925282;28;92387;-37
2022/05/12 02:44:37;;;;;;;70.75;50.72;;;19.60;60.20;;;;;;4921459;28;90658;-37
2022/05/12 02:47:04;;;;;;;71.03;50.78;;;19.60;60.40;;;;;;4927973;28;89519;-38
2022/05/12 02:49:31;;;;;;;70.53;50.65;;;19.60;60.20;;;;;;4924524;28;89140;-38
2022/05/12 02:51:56;;;;;;;70.28;50.70;;;19.60;60.40;;;;;;4921969;28;90410;-38
2022/05/12 02:54:22;;;;;;;71.50;50.60;;;19.50;60.30;;;;;;4925772;28;90428;-42
2022/05/12 02:56:49;;;;;;;69.82;50.63;;;19.50;60.50;;;;;;4921560;28;91313;-39
2022/05/12 02:59:17;;;;;;;70.20;50.55;;;19.50;60.40;;;;;;4926494;28;95760;-38
2022/05/12 03:01:43;;;;;;;69.90;50.47;;;19.50;60.40;;;;;;4924099;28;90273;-37
2022/05/12 03:04:09;;;;;;;71.93;50.90;;;19.50;60.90;;;;;;4916247;28;89918;-40
2022/05/12 03:06:34;;;;;;;70.05;50.95;;;19.50;60.40;;;;;;4928210;28;90123;-38
2022/05/12 03:09:00;;;;;;;70.18;50.72;;;19.50;60.60;;;;;;4921127;28;90061;-39
2022/05/12 03:11:28;;;;;;;71.75;50.45;;;19.50;60.40;;;;;;4925413;28;91596;-41
2022/05/12 03:13:53;;;;;;;72.65;50.92;;;19.50;60.30;;;;;;4925687;28;89983;-37
2022/05/12 03:16:19;;;;;;;72.38;50.65;;;19.40;60.30;;;;;;4926164;28;90343;-37
2022/05/12 03:18:47;;;;;;;70.53;50.85;;;19.40;60.60;;;;;;4923613;28;89628;-38
2022/05/12 03:21:16;;;;;;;70.65;50.88;;;19.40;60.90;;;;;;4922300;28;91312;-38
2022/05/12 03:23:42;;;;;;;70.55;50.80;;;19.40;60.70;;;;;;4913563;28;90869;-38
2022/05/12 03:26:09;;;;;;;70.05;50.45;;;19.30;60.60;;;;;;4923350;28;90013;-38
2022/05/12 03:28:36;;;;;;;71.78;50.67;;;19.30;60.80;;;;;;4926383;28;90440;-39
2022/05/12 03:31:02;;;;;;;69.68;50.45;;;19.30;60.90;;;;;;4924689;28;90189;-39
2022/05/12 03:33:28;;;;;;;72.70;50.65;;;19.30;60.90;;;;;;4914794;28;92102;-39
2022/05/12 03:35:53;;;;;;;69.70;50.42;;;19.30;60.50;;;;;;4920002;28;90297;-37
2022/05/12 03:38:20;;;;;;;69.10;50.40;;;19.30;60.90;;;;;;4920218;28;89585;-38
2022/05/12 03:40:46;;;;;;;70.30;50.90;;;19.30;61.40;;;;;;4919562;28;91671;-37
2022/05/12 03:44:46;;;;;;;68.35;50.17;;;19.30;60.50;;;;;;4923491;28;90522;-38
2022/05/12 03:45:58;;;;;;;70.45;50.72;;;19.20;60.60;;;;;;4921253;28;91279;-39
2022/05/12 03:48:24;;;;;;;68.65;50.17;;;19.20;60.90;;;;;;4924241;28;90356;-37
2022/05/12 03:50:49;;;;;;;69.30;50.47;;;19.20;60.90;;;;;;4930992;28;90975;-37
2022/05/12 03:53:15;;;;;;;71.93;50.90;;;19.20;61.00;;;;;;4922698;28;90397;-39
2022/05/12 03:55:40;;;;;;;70.90;50.60;;;19.20;61.00;;;;;;4924746;28;90703;-37
2022/05/12 03:58:06;;;;;;;69.97;50.50;;;19.20;61.00;;;;;;4922932;28;90075;-39
2022/05/12 04:00:32;;;;;;;71.05;50.67;;;19.20;61.30;;;;;;4927816;28;90123;-39
2022/05/12 04:02:58;;;;;;;69.28;50.50;;;19.20;61.00;;;;;;4910034;28;91827;-39
2022/05/12 04:05:24;;;;;;;69.22;50.50;;;19.20;61.10;;;;;;4926858;28;90822;-37
2022/05/12 04:07:51;;;;;;;70.53;50.63;;;19.10;61.10;;;;;;4926339;28;89780;-37
2022/05/12 04:10:18;;;;;;;70.03;50.63;;;19.10;61.00;;;;;;4922155;28;91251;-37
2022/05/12 04:12:43;;;;;;;69.18;50.58;;;19.10;61.00;;;;;;4919621;28;91670;-37
2022/05/12 04:15:10;;;;;;;69.18;50.63;;;19.10;60.90;;;;;;4919517;28;92165;-41
2022/05/12 04:17:35;;;;;;;68.90;50.60;;;19.10;61.20;;;;;;4922192;28;94418;-38
2022/05/12 04:20:04;;;;;;;69.43;50.38;;;19.10;61.20;;;;;;4925577;28;92351;-39
2022/05/12 04:22:30;;;;;;;69.03;50.47;;;19.10;61.60;;;;;;4918165;28;90950;-37
2022/05/12 04:24:56;;;;;;;72.25;50.60;;;19.10;61.00;;;;;;4923542;28;91037;-42
2022/05/12 04:27:21;;;;;;;69.82;50.83;;;19.10;60.90;;;;;;4926091;28;89600;-38
2022/05/12 04:29:47;;;;;;;69.38;50.53;;;19.10;60.90;;;;;;4922780;28;91004;-41
2022/05/12 04:32:13;;;;;;;70.43;50.65;;;19.00;61.10;;;;;;4918262;28;90945;-39
2022/05/12 04:37:29;;;;;;;69.05;50.50;;;19.10;61.10;;;;;;4922065;28;89702;-37
2022/05/12 04:39:55;;;;;;;69.85;50.55;;;19.00;61.10;;;;;;4915918;28;90293;-41
2022/05/12 04:42:21;;;;;;;72.10;51.00;;;19.10;61.00;;;;;;4922553;28;91417;-37
2022/05/12 04:44:46;;;;;;;69.32;50.78;;;19.00;61.00;;;;;;4918098;28;91083;-39
2022/05/12 04:47:12;;;;;;;70.80;50.70;;;19.10;60.90;;;;;;4922129;28;90820;-40
2022/05/12 04:49:38;;;;;;;69.35;50.60;;;19.00;60.80;;;;;;4912981;28;90473;-42
2022/05/12 04:52:04;;;;;;;70.18;50.63;;;19.00;61.00;;;;;;4923982;28;91536;-38
2022/05/12 04:54:30;;;;;;;68.55;50.40;;;19.00;60.80;;;;;;4926074;28;89884;-39
2022/05/12 04:56:56;;;;;;;69.97;50.83;;;19.00;60.90;;;;;;4926569;28;91486;-39
2022/05/12 04:59:22;;;;;;;69.85;50.72;;;19.00;61.20;;;;;;4925454;28;92038;-39
2022/05/12 05:01:48;;;;;;;69.35;50.65;;;19.00;60.90;;;;;;4923181;28;91029;-37
2022/05/12 05:04:13;;;;;;;70.80;50.80;;;19.00;60.90;;;;;;4919067;28;91590;-38
2022/05/12 05:06:39;;;;;;;70.40;50.63;;;19.00;60.90;;;;;;4923310;28;90999;-39
2022/05/12 05:09:06;;;;;;;70.18;50.80;;;19.00;61.00;;;;;;4920748;28;90356;-37
2022/05/12 05:11:33;;;;;;;70.32;50.75;;;19.10;60.70;;;;;;4921451;28;92299;-41
2022/05/12 05:13:59;;;;;;;70.70;51.25;;;19.10;60.70;;;;;;4926927;28;90149;-38
2022/05/12 05:16:25;;;;;;;73.20;51.30;;;19.10;60.70;;;;;;4920791;28;90344;-37
2022/05/12 05:18:50;;;;;;;72.15;51.50;;;19.10;61.00;;;;;;4921363;28;91390;-38
2022/05/12 05:21:16;;;;;;;72.22;51.42;;;19.10;60.80;;;;;;4917235;28;91964;-36
2022/05/12 05:23:41;;;;;;;71.78;51.03;;;19.10;60.70;;;;;;4929760;28;90323;-37
2022/05/12 05:26:08;;;;;;;73.07;51.45;;;19.10;60.80;;;;;;4927332;28;90813;-38
2022/05/12 05:28:34;;;;;;;72.45;51.13;;;19.10;60.80;;;;;;4933153;28;90084;-38
2022/05/12 05:31:00;;;;;;;73.70;51.20;;;19.10;60.90;;;;;;4924662;28;92054;-38
2022/05/12 05:33:26;;;;;;;71.68;51.25;;;19.10;60.80;;;;;;4914422;28;90672;-42
2022/05/12 05:35:52;;;;;;;72.20;50.92;;;19.10;60.80;;;;;;4912521;28;90697;-41
2022/05/12 05:38:17;;;;;;;76.82;51.35;;;19.10;61.20;;;;;;4917662;28;91927;-39
2022/05/12 05:40:43;;;;;;;77.53;51.75;;;19.20;62.20;;;;;;4921683;28;89907;-44
2022/05/12 05:43:09;;;;;;;77.00;51.25;;;19.40;61.90;;;;;;4919969;28;90215;-41
2022/05/12 05:45:34;;;;;;;77.88;51.60;;;19.40;61.60;;;;;;4911147;28;92620;-41
2022/05/12 05:48:03;;;;;;;79.07;52.03;;;19.50;60.80;;;;;;4917201;28;91746;-41
2022/05/12 05:53:23;;;;;;;75.40;51.38;;;19.50;60.30;;;;;;4928971;28;90253;-42
2022/05/12 05:53:25;;;;;;;72.82;51.58;;;19.50;60.30;;;;;;4926551;28;89935;-40
2022/05/12 05:55:52;;;;;;;;;;;19.60;60.20;;;;;;4921557;28;90030;-41
2022/05/12 05:58:18;;;;;;;75.47;51.28;;;19.60;60.10;;;;;;4919253;28;90624;-41
2022/05/12 06:00:45;;;;;;;76.00;51.42;;;19.60;60.10;;;;;;4919963;28;91793;-42
2022/05/12 06:03:11;;;;;;;73.88;51.47;;;19.60;59.80;;;;;;4917305;28;90665;-44
2022/05/12 06:05:37;;;;;;;74.28;51.53;;;19.60;60.20;;;;;;4924718;28;89311;-43
2022/05/12 06:08:04;;;;;;;72.82;51.67;;;19.60;59.60;;;;;;4928217;28;90832;-44
2022/05/12 06:10:30;;;;;;;72.45;51.53;;;19.70;59.40;;;;;;4928230;28;90549;-40
2022/05/12 06:12:56;;;;;;;75.28;51.83;;;19.70;59.30;;;;;;4921467;28;90871;-41
2022/05/12 06:15:23;;;;;;;73.85;51.30;;;19.70;59.40;;;;;;4926719;28;89374;-41
2022/05/12 06:17:49;;;;;;;72.78;51.72;;;19.70;59.10;;;;;;4929046;28;91271;-40
2022/05/12 06:20:15;;;;;;;75.65;51.67;;;19.80;59.20;;;;;;4918569;28;92501;-42
2022/05/12 06:22:40;;;;;;;71.90;51.45;;;19.80;59.50;;;;;;4925363;28;89830;-42
2022/05/12 06:25:09;;;;;;;72.75;51.42;;;19.90;59.30;;;;;;4928956;28;90276;-41
2022/05/12 06:27:35;;;;;;;72.95;51.53;;;19.90;58.70;;;;;;4925198;28;90474;-40
2022/05/12 06:30:03;;;;;;;71.93;51.58;;;20.00;58.90;;;;;;4927889;28;89822;-42
2022/05/12 06:32:30;;;;;;;72.20;51.90;;;20.00;58.70;;;;;;4926578;28;91508;-41
2022/05/12 06:34:56;;;;;;;71.47;51.25;;;20.00;58.80;;;;;;4925817;28;90439;-42
2022/05/12 06:37:22;;;;;;;72.53;51.58;;;20.10;58.60;;;;;;4928789;28;92008;-41
2022/05/12 06:39:48;;;;;;;74.10;51.83;;;20.10;58.30;;;;;;4924464;28;93182;-42
2022/05/12 06:42:14;;;;;;;77.18;52.58;;;20.20;58.50;;;;;;4925454;28;90185;-41
2022/05/12 06:44:44;;;;;;;77.75;52.53;;;20.20;58.50;;;;;;4922569;28;90185;-42
2022/05/12 06:47:12;;;;;;;76.50;52.72;;;20.30;58.60;;;;;;4924539;28;90557;-41
2022/05/12 06:49:38;;;;;;;80.13;52.40;;;20.30;58.30;;;;;;4919353;28;90635;-40
2022/05/12 06:52:05;;;;;;;77.45;52.65;;;20.30;58.70;;;;;;4923735;28;91472;-44
2022/05/12 06:54:32;;;;;;;78.28;52.55;;;20.40;58.50;;;;;;4916077;28;92834;-42
2022/05/12 06:56:58;;;;;;;76.03;52.63;;;20.40;59.20;;;;;;4914730;28;91267;-47
2022/05/12 06:59:24;;;;;;;79.13;53.03;;;20.50;58.30;;;;;;4929938;28;90004;-42
2022/05/12 07:01:49;;;;;;;79.85;52.95;;;20.50;59.40;;;;;;4908926;28;93375;-41
2022/05/12 07:04:15;;;;;;;82.07;53.03;;;20.50;59.00;;;;;;4909924;28;90427;-41
2022/05/12 07:06:41;;;;;;;82.78;53.13;;;20.60;59.30;;;;;;4918664;28;90216;-41
2022/05/12 07:09:06;;;;;;;76.65;53.33;;;20.70;58.90;;;;;;4927248;28;89848;-41
2022/05/12 07:11:32;;;;;;;79.90;53.28;;;20.70;59.60;;;;;;4918471;28;89947;-40
2022/05/12 07:13:58;;;;;;;78.13;52.88;;;20.80;58.70;;;;;;4921795;28;89817;-40
2022/05/12 07:16:23;;;;;;;78.20;52.88;;;20.80;58.80;;;;;;4926560;28;89818;-42
2022/05/12 07:18:49;;;;;;;82.50;53.00;;;20.80;58.00;;;;;;4925282;28;89869;-40
2022/05/12 07:26:47;;;;;;;82.72;53.38;;;20.80;57.70;;;;;;4919283;28;97409;-41
2022/05/12 07:29:16;;;;;;;86.55;53.63;;;20.90;58.90;;;;;;4926542;28;90601;-44
2022/05/12 07:31:41;;;;;;;89.35;54.33;;;20.90;59.10;;;;;;4929484;28;90084;-40
2022/05/12 07:34:09;;;;;;;90.85;55.40;;;21.00;59.10;;;;;;4920129;28;91180;-41
2022/05/12 07:36:41;;;;;;;87.28;55.00;;;21.10;58.90;;;;;;4926507;28;90629;-41
2022/05/12 07:39:07;;;;;;;85.03;55.28;;;21.10;58.60;;;;;;4922261;28;92101;-40
2022/05/12 07:41:34;;;;;;;88.88;55.78;;;21.20;58.00;;;;;;4914087;28;90121;-42
2022/05/12 07:44:00;;;;;;;87.25;55.05;;;21.20;58.40;;;;;;4922800;28;88822;-40
2022/05/12 07:46:28;;;;;;;86.45;54.83;;;21.30;58.10;;;;;;4909031;28;90510;-40
2022/05/12 07:48:55;;;;;;;89.82;55.15;;;21.40;57.50;;;;;;4918426;28;90374;-42
2022/05/12 07:51:21;;;;;;;89.97;55.47;;;21.40;57.80;;;;;;4919609;28;91164;-41
2022/05/12 07:53:48;;;;;;;88.32;54.92;;;21.50;57.80;;;;;;4918600;28;90673;-41
2022/05/12 07:56:20;;;;;;;88.90;55.45;;;21.50;57.40;;;;;;4919844;28;90155;-42
2022/05/12 07:58:46;;;;;;;84.50;54.72;;;21.60;57.50;;;;;;4922139;28;93816;-42
2022/05/12 08:01:12;;;;;;;86.95;54.65;;;21.60;57.50;;;;;;4921510;28;92505;-40
2022/05/12 08:03:39;;;;;;;83.03;54.38;;;21.60;57.50;;;;;;4912984;28;94274;-44
2022/05/12 08:06:07;;;;;;;84.45;54.58;;;21.60;57.10;;;;;;4920383;28;91553;-40
2022/05/12 08:08:35;;;;;;;89.20;55.28;;;21.70;57.10;;;;;;4918645;28;91985;-40
2022/05/12 08:11:03;;;;;;;83.30;54.80;;;21.80;56.70;;;;;;4924890;28;89838;-41
2022/05/12 08:13:29;;;;;;;82.72;54.38;;;21.80;56.50;;;;;;4919682;28;89895;-40
2022/05/12 08:15:55;;;;;;;85.72;54.33;;;21.90;56.40;;;;;;4913041;28;92891;-43
2022/05/12 08:18:23;;;;;;;82.65;54.25;;;22.00;56.30;;;;;;4919110;28;94306;-40
2022/05/12 08:20:50;;;;;;;82.65;54.15;;;22.00;56.10;;;;;;4930446;28;89843;-39
2022/05/12 08:23:16;;;;;;;82.50;54.42;;;22.00;56.00;;;;;;4929890;28;89810;-41
2022/05/12 08:25:43;;;;;;;79.05;53.88;;;22.10;55.90;;;;;;4921056;28;90501;-43
2022/05/12 08:28:12;;;;;;;82.13;53.97;;;22.10;55.40;;;;;;4918469;28;90191;-39
2022/05/12 08:30:37;;;;;;;80.32;53.92;;;22.20;55.50;;;;;;4921403;28;89682;-42
2022/05/12 08:33:03;;;;;;;81.00;54.28;;;22.20;55.40;;;;;;4928817;28;92631;-42
2022/05/12 08:35:28;;;;;;;81.35;54.13;;;22.30;55.50;;;;;;4917784;28;90616;-39
2022/05/12 08:37:54;;;;;;;79.65;53.67;;;22.30;54.80;;;;;;4916886;28;90365;-40
2022/05/12 08:40:37;;;;;;;84.75;53.92;;;22.40;54.30;;;;;;4915412;28;91930;-40
2022/05/12 08:43:16;;;;;;;80.07;54.10;;;22.40;54.60;;;;;;4914281;28;90179;-41
2022/05/12 08:45:43;;;;;;;82.45;54.00;;;22.50;54.50;;;;;;4918183;28;92781;-39
2022/05/12 08:48:11;;;;;;;82.80;53.78;;;22.50;54.30;;;;;;4914477;28;91054;-38
2022/05/12 08:50:39;;;;;;;77.20;53.03;;;22.60;54.00;;;;;;4917713;28;90084;-41
2022/05/12 08:53:12;;;;;;;82.75;53.53;;;22.60;53.70;;;;;;4919606;28;91095;-40
2022/05/12 08:55:56;;;;;;;81.57;53.83;;;22.60;53.70;;;;;;4924458;28;92266;-40
2022/05/12 08:58:35;;;;;;;80.97;53.85;;;22.70;53.50;;;;;;4929003;28;89466;-39
2022/05/12 09:01:11;;;;;;;80.28;53.65;;;22.80;53.30;;;;;;4927805;28;90518;-39
2022/05/12 09:03:36;;;;;;;88.95;53.97;;;22.80;53.40;;;;;;4911199;28;90056;-39
2022/05/12 09:06:09;;;;;;;78.18;53.72;;;22.90;53.20;;;;;;4912110;28;91886;-40
2022/05/12 09:09:02;;;;;;;96.30;54.65;;;23.00;52.90;;;;;;4914624;28;93954;-42
2022/05/12 09:11:38;;;;;;;80.50;53.53;;;23.10;52.50;;;;;;4906324;28;89922;-41
2022/05/12 09:14:08;;;;;;;83.68;53.95;;;23.20;52.10;;;;;;4903408;28;91610;-43
2022/05/12 09:16:34;;;;;;;80.13;53.92;;;23.30;51.90;;;;;;4912202;28;90417;-41
2022/05/12 09:19:01;;;;;;;83.18;54.25;;;23.40;51.50;;;;;;4910331;28;90962;-41
2022/05/12 09:21:33;;;;;;;82.75;53.83;;;23.40;51.00;;;;;;4902372;28;91610;-42
2022/05/12 09:23:59;;;;;;;80.90;53.95;;;23.50;50.80;;;;;;4915249;28;91231;-42
2022/05/12 09:26:49;;;;;;;82.68;54.20;;;23.50;50.50;;;;;;4917143;28;92549;-44
2022/05/12 09:29:27;;;;;;;80.65;53.60;;;23.50;50.60;;;;;;4912534;28;91646;-43
2022/05/12 09:32:02;;;;;;;81.13;54.05;;;23.60;50.40;;;;;;4916880;28;93458;-43
2022/05/12 09:34:35;;;;;;;81.20;53.88;;;23.70;50.30;;;;;;4908061;28;90208;-40
2022/05/12 09:37:15;;;;;;;81.85;54.10;;;23.70;50.30;;;;;;4920262;28;92128;-40
2022/05/12 09:39:50;;;;;;;86.50;54.75;;;23.70;50.10;;;;;;4914541;28;91774;-40
2022/05/12 09:42:38;;;;;;;86.60;54.75;;;23.70;50.50;;;;;;4918604;28;89652;-41
2022/05/12 09:45:16;;;;;;;90.95;55.05;;;23.90;50.50;;;;;;4917885;28;90739;-43
2022/05/12 09:47:42;;;;;;;87.80;54.60;;;23.90;50.10;;;;;;4918173;28;92228;-41
2022/05/12 09:50:17;;;;;;;87.75;55.40;;;23.90;49.30;;;;;;4917763;28;92854;-43
2022/05/12 09:52:57;;;;;;;87.05;54.85;;;24.00;49.80;;;;;;4929580;28;89995;-42
2022/05/12 09:55:31;;;;;;;91.57;56.30;;;24.10;49.50;;;;;;4917735;28;91970;-43
2022/05/12 09:57:56;;;;;;;88.50;55.70;;;24.10;49.00;;;;;;4909938;28;93157;-47
2022/05/12 10:00:41;;;;;;;90.93;55.85;;;24.00;49.00;;;;;;4924149;28;91282;-41
2022/05/12 10:09:12;;;;;;;85.28;55.67;;;24.00;48.60;;;;;;4913573;28;92294;-41
2022/05/12 10:12:00;;;;;;;88.25;55.83;;;24.10;48.30;;;;;;4928117;28;90594;-39
2022/05/12 10:14:46;;;;;;;87.00;55.33;;;24.00;48.30;;;;;;4917641;28;97360;-39
2022/05/12 10:17:43;;;;;;;85.05;55.47;;;24.10;48.30;;;;;;4925980;28;89246;-38
2022/05/12 10:20:19;;;;;;;87.25;54.88;;;24.10;48.20;;;;;;4923662;28;90717;-41
2022/05/12 10:22:57;;;;;;;86.65;55.30;;;24.10;48.20;;;;;;4926556;28;89866;-40
2022/05/12 10:25:56;;;;;;;83.43;55.15;;;24.00;48.30;;;;;;4924689;28;90732;-39
2022/05/12 10:28:47;;;;;;;87.28;55.55;;;24.00;48.40;;;;;;4925045;28;90980;-38
2022/05/12 10:31:56;;;;;;;83.63;55.17;;;24.10;48.40;;;;;;4928973;28;90529;-42
2022/05/12 10:34:34;;;;;;;84.90;55.42;;;24.10;48.40;;;;;;4930431;28;90692;-39
2022/05/12 10:37:03;;;;;;;83.95;55.28;;;24.10;48.00;;;;;;4922669;28;90289;-39
2022/05/12 10:39:54;;;;;;;83.72;55.05;;;24.10;48.20;;;;;;4924412;28;90752;-42
2022/05/12 10:42:41;;;;;;;84.87;54.50;;;24.10;48.00;;;;;;4930887;28;91432;-40
2022/05/12 10:45:13;;;;;;;83.53;55.00;;;24.00;47.90;;;;;;4929909;28;89654;-39
2022/05/12 10:47:39;;;;;;;84.22;54.80;;;24.00;47.80;;;;;;4926729;28;90379;-38
2022/05/12 10:50:22;;;;;;;83.82;54.97;;;24.00;47.60;;;;;;4929139;28;89592;-41
2022/05/12 10:53:21;;;;;;;81.63;54.55;;;24.00;47.60;;;;;;4926288;28;91118;-39
2022/05/12 10:56:09;;;;;;;84.43;54.67;;;24.00;47.50;;;;;;4928890;28;90483;-39
2022/05/12 10:58:43;;;;;;;84.40;54.55;;;24.10;47.50;;;;;;4931059;28;91387;-39
2022/05/12 11:01:18;;;;;;;82.47;54.13;;;24.10;47.60;;;;;;4931296;28;90118;-40
2022/05/12 11:03:54;;;;;;;83.93;54.83;;;24.10;47.50;;;;;;4920833;28;91610;-41
2022/05/12 11:06:35;;;;;;;82.50;54.65;;;24.10;47.50;;;;;;4924452;28;90337;-40
2022/05/12 11:09:13;;;;;;;83.68;54.70;;;24.10;47.30;;;;;;4922078;28;89895;-41
2022/05/12 11:11:43;;;;;;;84.40;54.72;;;24.10;47.30;;;;;;4926824;28;89502;-41
2022/05/12 11:14:33;;;;;;;80.15;54.35;;;24.10;47.80;;;;;;4926825;28;90060;-40
2022/05/12 11:17:10;;;;;;;84.43;54.78;;;24.20;47.20;;;;;;4918934;28;95713;-39
2022/05/12 11:19:41;;;;;;;81.95;54.38;;;24.10;47.20;;;;;;4926275;28;91578;-40
2022/05/12 11:22:47;;;;;;;81.57;54.20;;;24.20;47.10;;;;;;4916899;28;89943;-40
2022/05/12 11:25:27;;;;;;;82.28;54.75;;;24.20;47.20;;;;;;4915070;28;90594;-41
2022/05/12 11:29:41;;;;;;;81.75;54.53;;;24.20;47.10;;;;;;4912587;28;94760;-39
2022/05/12 11:30:57;;;;;;;85.15;54.83;;;24.30;46.80;;;;;;4920193;28;90036;-41
2022/05/12 11:33:38;;;;;;;80.60;54.38;;;24.40;47.50;;;;;;4921236;28;90170;-42
2022/05/12 11:36:03;;;;;;;;;;;24.50;47.20;;;;;;4910085;28;91567;-39
2022/05/12 11:38:42;;;;;;;94.45;56.80;;;24.50;47.40;;;;;;4923765;28;90970;-42
2022/05/12 11:41:37;;;;;;;93.47;55.70;;;24.50;48.20;;;;;;4922765;28;90912;-40
2022/05/12 11:44:24;;;;;;;98.72;57.05;;;24.50;48.70;;;;;;4921561;28;90502;-41
2022/05/12 11:46:58;;;;;;;103.78;57.72;;;24.60;48.60;;;;;;4920603;28;94027;-39
2022/05/12 11:49:51;;;;;;;84.85;55.10;;;24.70;48.50;;;;;;4924545;28;89856;-40
2022/05/12 11:52:46;;;;;;;96.30;56.78;;;24.70;48.70;;;;;;4924373;28;92706;-41
2022/05/12 11:55:30;;;;;;;88.50;56.22;;;24.70;48.70;;;;;;4917274;28;93216;-41
2022/05/12 11:58:04;;;;;;;93.95;56.15;;;24.80;48.60;;;;;;4901193;28;92055;-40
2022/05/12 12:00:35;;;;;;;88.90;55.83;;;24.70;48.90;;;;;;4920241;28;91422;-40
2022/05/12 12:03:35;;;;;;;87.85;55.83;;;24.90;49.50;;;;;;4918898;28;89449;-40
2022/05/12 12:06:04;;;;;;;92.78;56.38;;;25.00;48.60;;;;;;4905367;28;90110;-38
2022/05/12 12:08:44;;;;;;;85.95;55.78;;;25.00;49.10;;;;;;4915166;28;93013;-39
2022/05/12 12:11:19;;;;;;;88.75;55.45;;;25.00;48.40;;;;;;4923672;28;90700;-40
2022/05/12 12:13:46;;;;;;;89.53;55.35;;;25.00;48.60;;;;;;4918760;28;90936;-40
2022/05/12 12:16:18;;;;;;;87.90;55.88;;;25.10;48.60;;;;;;4920397;28;90027;-45
2022/05/12 12:19:03;;;;;;;91.47;56.05;;;25.10;48.50;;;;;;4926258;28;90084;-41
2022/05/12 12:21:37;;;;;;;87.60;55.38;;;25.20;48.00;;;;;;4919488;28;90311;-39
2022/05/12 12:24:18;;;;;;;88.57;55.42;;;25.20;48.00;;;;;;4921256;28;90001;-40
2022/05/12 12:26:50;;;;;;;86.85;55.35;;;25.20;48.00;;;;;;4916495;28;91908;-41
2022/05/12 12:29:21;;;;;;;86.32;55.05;;;25.20;48.20;;;;;;4925175;28;89999;-42
2022/05/12 12:31:51;;;;;;;88.85;55.22;;;25.10;48.60;;;;;;4925583;28;88901;-42
2022/05/12 12:34:57;;;;;;;86.57;54.75;;;25.10;48.70;;;;;;4919897;28;90452;-41
2022/05/12 12:37:49;;;;;;;89.05;55.80;;;25.10;48.70;;;;;;4914417;28;92052;-44
2022/05/12 12:40:32;;;;;;;;;;;25.20;48.50;;;;;;4923620;28;90954;-38
2022/05/12 12:43:25;;;;;;;85.13;55.10;;;25.10;48.50;;;;;;4927400;28;89614;-40
2022/05/12 12:45:53;;;;;;;86.28;55.25;;;25.10;48.40;;;;;;4927478;28;91207;-42
2022/05/12 12:48:42;;;;;;;85.55;55.55;;;25.10;48.10;;;;;;4930150;28;89676;-43
2022/05/12 12:51:08;;;;;;;84.07;55.00;;;25.00;48.10;;;;;;4931916;28;90283;-42
2022/05/12 12:56:34;;;;;;;84.00;54.70;;;24.90;47.00;;;;;;4925861;28;92146;-45
2022/05/12 12:59:15;;;;;;;84.97;55.03;;;25.00;47.80;;;;;;4927702;28;90096;-42
2022/05/12 13:01:50;;;;;;;;;;;25.00;47.70;;;;;;4927686;28;95663;-42